Time;durP1;ratioP1;P1;durP2;ratioP2;P2;SDS_P1;SDS_P2;PMS_P1;PMS_P2;Temp;Humidity;BMP_temperature;BMP_pressure;BME280_temperature;BME280_humidity;BME280_pressure;Samples;Min_cycle;Max_cycle;Signal;HPM_P1;HPM_P2
2022/09/05 00:00:30;;;;;;;7.30;3.30;;;;;;;11.12;69.10;100888.83;212889;1277;139397;-66
2022/09/05 00:06:05;;;;;;;6.30;2.90;;;;;;;11.11;69.16;100886.86;213076;1279;140227;-65
2022/09/05 00:11:40;;;;;;;3.10;2.80;;;;;;;11.05;69.20;100885.02;213734;1277;140689;-62
2022/09/05 00:17:25;;;;;;;3.80;3.20;;;;;;;11.00;69.10;100888.41;213543;1279;140116;-65
2022/09/05 00:23:49;;;;;;;4.60;3.20;;;;;;;10.98;69.22;100886.13;214703;1276;142452;-67
2022/09/05 00:29:59;;;;;;;2.60;2.30;;;;;;;10.91;68.92;100884.05;215769;1275;139550;-66
2022/09/05 00:36:02;;;;;;;1.60;1.50;;;;;;;10.83;69.00;100883.23;215920;1276;139629;-66
2022/09/05 00:41:23;;;;;;;2.30;2.10;;;;;;;10.83;69.04;100887.50;215897;1276;139892;-66
2022/09/05 00:47:01;;;;;;;2.30;2.10;;;;;;;10.88;69.01;100884.21;215343;1275;140964;-65
2022/09/05 00:52:55;;;;;;;5.30;3.10;;;;;;;10.92;68.91;100881.42;214041;1276;139377;-65
2022/09/05 00:58:43;;;;;;;4.30;1.80;;;;;;;10.94;68.89;100884.45;214538;1276;140762;-64
2022/09/05 01:04:04;;;;;;;5.80;2.50;;;;;;;10.89;68.70;100882.73;213267;1276;231214;-64
2022/09/05 01:10:02;;;;;;;2.30;2.10;;;;;;;10.85;68.75;100884.63;213935;1276;140759;-64
2022/09/05 01:15:30;;;;;;;4.10;2.00;;;;;;;10.77;68.80;100888.33;213673;1277;141018;-63
2022/09/05 01:21:08;;;;;;;3.80;2.70;;;;;;;10.73;68.84;100887.55;213907;1274;162688;-65
2022/09/05 01:26:56;;;;;;;3.80;2.80;;;;;;;10.69;68.80;100894.59;213151;1276;142071;-64
2022/09/05 01:32:41;;;;;;;1.90;1.80;;;;;;;10.62;68.78;100900.14;214037;1277;163270;-65
2022/09/05 01:38:09;;;;;;;2.60;2.40;;;;;;;10.52;68.82;100905.27;213304;1274;141256;-64
2022/09/05 01:44:07;;;;;;;3.40;2.60;;;;;;;10.43;68.85;100910.17;213997;1274;141471;-63
2022/09/05 01:49:40;;;;;;;2.20;2.00;;;;;;;10.36;68.81;100910.86;213410;1274;140900;-63
2022/09/05 01:55:18;;;;;;;3.80;2.50;;;;;;;10.29;68.84;100915.80;214183;1274;141216;-63
2022/09/05 02:00:57;;;;;;;2.90;2.20;;;;;;;10.22;69.02;100914.59;214435;1274;139824;-65
2022/09/05 02:07:03;;;;;;;1.90;1.70;;;;;;;10.13;69.14;100914.84;214327;1274;140068;-66
2022/09/05 02:13:20;;;;;;;2.10;1.80;;;;;;;10.07;69.16;100914.27;215049;1274;139408;-66
2022/09/05 02:19:08;;;;;;;3.40;2.00;;;;;;;10.03;69.25;100917.14;214411;1274;161225;-64
2022/09/05 02:24:36;;;;;;;3.60;1.80;;;;;;;9.99;69.25;100916.71;216051;1274;139955;-64
2022/09/05 02:30:07;;;;;;;1.70;1.60;;;;;;;9.94;69.08;100914.33;216371;1274;139418;-65
2022/09/05 02:35:51;;;;;;;2.10;2.00;;;;;;;9.91;69.19;100908.74;215953;1274;139323;-65
2022/09/05 02:41:31;;;;;;;1.90;1.80;;;;;;;9.84;69.18;100907.73;216066;1274;139529;-64
2022/09/05 02:47:33;;;;;;;3.80;2.20;;;;;;;9.79;69.16;100908.39;215257;1274;140124;-65
2022/09/05 02:52:55;;;;;;;7.50;2.00;;;;;;;9.78;69.20;100908.09;213517;1274;139349;-66
2022/09/05 02:58:58;;;;;;;3.20;1.80;;;;;;;9.77;69.34;100906.98;214109;1274;139907;-65
2022/09/05 03:04:49;;;;;;;2.10;1.90;;;;;;;9.71;69.27;100905.67;214621;1274;139652;-64
2022/09/05 03:10:51;;;;;;;1.40;1.30;;;;;;;9.67;69.41;100912.05;214732;1274;139831;-64
2022/09/05 03:16:48;;;;;;;3.50;1.90;;;;;;;9.64;69.29;100906.25;215147;1274;141063;-64
2022/09/05 03:22:35;;;;;;;1.80;1.40;;;;;;;9.61;69.25;100907.55;213292;1274;140129;-66
2022/09/05 03:28:22;;;;;;;3.20;1.70;;;;;;;9.57;69.25;100908.27;213526;1274;139925;-64
2022/09/05 03:34:14;;;;;;;3.60;1.80;;;;;;;9.50;69.17;100914.63;213739;1274;230029;-65
2022/09/05 03:40:02;;;;;;;2.00;1.80;;;;;;;9.42;69.35;100919.08;214519;1274;139170;-63
2022/09/05 03:45:48;;;;;;;2.10;1.50;;;;;;;9.37;69.37;100921.18;213682;1274;139499;-65
2022/09/05 03:51:19;;;;;;;6.80;1.50;;;;;;;9.26;69.26;100921.52;214616;1274;139658;-65
2022/09/05 03:57:27;;;;;;;5.60;1.60;;;;;;;9.12;69.71;100929.11;215109;1274;139763;-64
2022/09/05 04:03:31;;;;;;;1.90;1.80;;;;;;;8.97;69.72;100929.88;215219;1274;139154;-66
2022/09/05 04:09:21;;;;;;;3.10;1.80;;;;;;;8.81;70.20;100937.77;214430;1274;139400;-65
2022/09/05 04:15:07;;;;;;;3.80;1.60;;;;;;;8.72;69.98;100942.40;214134;1274;140590;-65
2022/09/05 04:20:49;;;;;;;8.80;2.00;;;;;;;8.61;70.32;100941.55;215005;1274;140829;-63
2022/09/05 04:26:26;;;;;;;1.50;1.30;;;;;;;8.56;70.31;100947.86;215712;1274;140345;-64
2022/09/05 04:32:06;;;;;;;2.60;2.40;;;;;;;8.59;71.15;100955.80;215317;1274;141536;-64
2022/09/05 04:37:53;;;;;;;1.40;1.30;;;;;;;8.56;71.10;100958.70;216004;1273;139456;-66
2022/09/05 04:43:17;;;;;;;0.80;0.80;;;;;;;8.58;71.34;100970.02;215664;1274;140090;-67
2022/09/05 04:48:50;;;;;;;1.40;1.30;;;;;;;8.65;71.27;100978.44;215477;1276;140994;-66
2022/09/05 04:54:21;;;;;;;1.50;1.40;;;;;;;8.80;71.54;100985.86;214786;1274;140974;-66
2022/09/05 05:00:15;;;;;;;1.50;1.20;;;;;;;8.94;71.68;100986.92;214731;1274;140725;-66
2022/09/05 05:06:32;;;;;;;4.10;2.10;;;;;;;9.06;71.99;100991.77;215094;1274;140056;-66
2022/09/05 05:12:15;;;;;;;3.60;1.40;;;;;;;9.24;72.36;100997.33;213131;1274;150644;-64
2022/09/05 05:18:05;;;;;;;6.60;1.90;;;;;;;9.46;72.66;100993.40;213078;1276;141246;-63
2022/09/05 05:23:51;;;;;;;5.30;1.90;;;;;;;9.67;72.68;100994.29;212988;1275;142301;-62
2022/09/05 05:29:14;;;;;;;5.40;2.30;;;;;;;9.86;72.94;100995.18;213132;1276;141372;-64
2022/09/05 05:34:45;;;;;;;2.60;1.40;;;;;;;10.01;72.59;100990.04;213803;1274;140384;-63
2022/09/05 05:40:17;;;;;;;3.50;1.80;;;;;;;10.18;72.79;100991.27;214412;1274;142046;-64
2022/09/05 05:45:39;;;;;;;8.40;3.30;;;;;;;10.40;72.66;100993.92;213011;1274;164041;-66
2022/09/05 05:51:12;;;;;;;7.50;2.20;;;;;;;10.65;72.44;100998.55;212973;1276;141873;-66
2022/09/05 05:57:19;;;;;;;4.80;1.50;;;;;;;10.88;72.43;101002.08;212920;1274;141611;-64
2022/09/05 06:03:17;;;;;;;4.40;1.20;;;;;;;11.09;71.98;101005.70;213908;1274;141538;-65
2022/09/05 06:09:24;;;;;;;1.30;1.30;;;;;;;11.30;71.32;101007.61;213917;1274;141387;-64
2022/09/05 06:15:36;;;;;;;4.00;1.30;;;;;;;11.51;70.58;101008.06;215684;1274;140657;-65
2022/09/05 06:21:09;;;;;;;0.90;0.90;;;;;;;11.78;70.19;101013.04;215573;1276;140193;-66
2022/09/05 06:27:22;;;;;;;3.40;1.60;;;;;;;12.04;69.74;101011.58;215563;1276;140550;-64
2022/09/05 06:33:01;;;;;;;2.70;1.00;;;;;;;12.30;69.25;101010.57;214894;1276;139880;-66
2022/09/05 06:38:54;;;;;;;8.90;1.40;;;;;;;12.56;68.74;101017.11;216009;1276;139588;-66
2022/09/05 06:44:47;;;;;;;1.80;0.60;;;;;;;12.90;68.23;101018.34;215542;1276;140374;-66
2022/09/05 06:50:15;;;;;;;4.90;1.20;;;;;;;13.34;67.50;101013.80;213001;1277;140530;-65
2022/09/05 06:56:14;;;;;;;5.90;0.90;;;;;;;13.74;66.08;101014.09;214601;1275;140345;-67
2022/09/05 07:01:56;;;;;;;2.40;1.00;;;;;;;14.05;65.78;101012.59;214430;1275;140588;-65
2022/09/05 07:07:33;;;;;;;3.10;1.00;;;;;;;14.36;65.08;101015.11;214326;1275;139854;-66
2022/09/05 07:13:22;;;;;;;2.30;0.70;;;;;;;14.85;64.36;101017.31;213429;1274;139680;-66
2022/09/05 07:18:59;;;;;;;6.60;1.10;;;;;;;15.91;63.58;101018.08;213873;1276;139796;-65
2022/09/05 07:24:29;;;;;;;3.60;2.00;;;;;;;17.58;62.26;101019.41;213775;1275;140153;-65
2022/09/05 07:30:14;;;;;;;0.80;0.80;;;;;;;19.06;60.74;101024.01;213373;1274;1836935;-68
2022/09/05 07:35:38;;;;;;;2.50;1.10;;;;;;;19.98;59.08;101034.97;213974;1276;140754;-68
2022/09/05 07:41:17;;;;;;;3.40;1.10;;;;;;;20.76;57.55;101040.52;213920;1274;141444;-67
2022/09/05 07:46:43;;;;;;;1.60;1.30;;;;;;;21.49;56.01;101041.17;212943;1275;139800;-65
2022/09/05 07:52:16;;;;;;;1.20;1.10;;;;;;;21.91;53.44;101043.30;214451;1276;139311;-66
2022/09/05 07:58:01;;;;;;;3.50;2.10;;;;;;;22.11;51.47;101048.02;214104;1275;140279;-67
2022/09/05 08:03:26;;;;;;;5.40;0.90;;;;;;;22.21;49.89;101051.50;212940;1276;140118;-68
2022/09/05 08:08:58;;;;;;;1.70;1.30;;;;;;;22.29;48.97;101052.60;214696;1274;140707;-70
2022/09/05 08:15:05;;;;;;;1.50;1.40;;;;;;;22.37;48.19;101050.04;214906;1274;139728;-66
2022/09/05 08:20:46;;;;;;;19.30;3.40;;;;;;;22.39;47.48;101054.31;215902;1276;139512;-67
2022/09/05 08:26:14;;;;;;;1.10;1.10;;;;;;;22.31;46.30;101054.48;215950;1275;139477;-67
2022/09/05 08:31:45;;;;;;;1.00;1.00;;;;;;;22.36;46.15;101056.60;214489;1274;139428;-68
2022/09/05 08:37:11;;;;;;;2.60;1.40;;;;;;;22.42;45.59;101055.60;215810;1275;139317;-69
2022/09/05 08:43:01;;;;;;;3.20;1.20;;;;;;;22.50;44.89;101050.51;215314;1274;140181;-67
2022/09/05 08:49:12;;;;;;;0.40;0.40;;;;;;;22.36;44.50;101041.55;213328;1274;140672;-67
2022/09/05 08:55:01;;;;;;;2.30;1.00;;;;;;;22.25;43.81;101032.14;214754;1275;140749;-65
2022/09/05 09:00:34;;;;;;;2.20;1.20;;;;;;;22.43;43.81;101027.11;213843;1274;139328;-69
2022/09/05 09:06:28;;;;;;;3.20;0.70;;;;;;;22.63;43.89;101022.84;213141;1276;140209;-67
2022/09/05 09:12:26;;;;;;;1.30;1.00;;;;;;;22.73;42.81;101024.19;214249;1274;139478;-66
2022/09/05 09:17:49;;;;;;;1.90;0.60;;;;;;;22.80;42.27;101023.61;213776;1276;140022;-66
2022/09/05 09:23:14;;;;;;;0.80;0.70;;;;;;;22.93;41.74;101022.41;214358;1276;141000;-66
2022/09/05 09:29:05;;;;;;;1.30;1.00;;;;;;;23.01;41.27;101016.79;213033;1276;140338;-68
2022/09/05 09:34:31;;;;;;;1.50;1.00;;;;;;;22.96;40.75;101014.55;213403;1276;141449;-68
2022/09/05 09:40:43;;;;;;;2.80;2.40;;;;;;;23.01;40.54;101007.65;212937;1274;139596;-67
2022/09/05 09:46:29;;;;;;;1.00;0.90;;;;;;;23.13;40.31;101007.55;213928;1276;140019;-67
2022/09/05 09:52:32;;;;;;;2.20;0.80;;;;;;;23.23;40.61;101007.45;214530;1274;139408;-67
2022/09/05 09:58:11;;;;;;;9.00;2.60;;;;;;;23.27;39.47;101006.45;213741;1274;139992;-67
2022/09/05 10:04:06;;;;;;;1.20;0.90;;;;;;;23.42;39.51;101006.90;214783;1274;140753;-67
2022/09/05 10:10:24;;;;;;;0.70;0.70;;;;;;;23.50;39.39;101002.58;214065;1274;140195;-67
2022/09/05 10:16:21;;;;;;;3.70;2.60;;;;;;;23.62;38.50;101003.05;215435;1274;140385;-68
2022/09/05 10:22:08;;;;;;;1.50;1.30;;;;;;;23.72;37.74;100997.96;216230;1274;140256;-70
2022/09/05 10:28:12;;;;;;;2.20;1.90;;;;;;;23.83;37.70;100994.08;215413;1272;140178;-69
2022/09/05 10:33:50;;;;;;;1.40;0.60;;;;;;;23.86;37.42;100986.79;216205;1273;140155;-69
2022/09/05 10:39:36;;;;;;;1.90;1.30;;;;;;;24.04;37.78;100982.63;216280;1272;141080;-70
2022/09/05 10:45:01;;;;;;;2.40;1.60;;;;;;;24.03;37.35;100979.04;216277;1272;139995;-69
2022/09/05 10:50:27;;;;;;;1.10;0.90;;;;;;;23.94;36.84;100975.45;213690;1274;139947;-70
2022/09/05 10:56:03;;;;;;;4.50;1.80;;;;;;;23.82;36.60;100971.54;213472;1274;139236;-70
2022/09/05 11:01:58;;;;;;;3.90;1.30;;;;;;;23.80;36.85;100962.91;214347;1275;139814;-70
2022/09/05 11:08:07;;;;;;;10.30;2.60;;;;;;;23.83;36.29;100958.08;213387;1274;139736;-67
2022/09/05 11:13:44;;;;;;;1.90;1.70;;;;;;;23.92;36.19;100957.28;214246;1274;140447;-70
2022/09/05 11:19:12;;;;;;;1.40;1.10;;;;;;;23.96;36.11;100955.71;213439;1274;139900;-69
2022/09/05 11:24:58;;;;;;;12.40;1.80;;;;;;;23.89;36.03;100953.26;213958;1274;139977;-68
2022/09/05 11:30:22;;;;;;;0.60;0.60;;;;;;;23.90;35.46;100955.30;213632;1274;140039;-68
2022/09/05 11:36:01;;;;;;;0.40;0.40;;;;;;;23.94;35.73;100949.05;214589;1274;140790;-68
2022/09/05 11:41:45;;;;;;;2.40;1.10;;;;;;;23.85;35.51;100943.72;213264;1275;161813;-66
2022/09/05 11:47:45;;;;;;;0.60;0.50;;;;;;;23.71;35.45;100941.19;213460;1274;139630;-67
2022/09/05 11:53:38;;;;;;;0.60;0.60;;;;;;;23.63;35.63;100942.55;214080;1274;140858;-65
2022/09/05 11:59:36;;;;;;;4.30;1.30;;;;;;;23.74;35.46;100938.59;213148;1275;142749;-68
2022/09/05 12:05:39;;;;;;;0.50;0.40;;;;;;;23.83;35.30;100938.58;214194;1274;141877;-66
2022/09/05 12:11:57;;;;;;;1.20;0.60;;;;;;;23.84;34.62;100936.48;213111;1275;140377;-65
2022/09/05 12:17:30;;;;;;;0.60;0.50;;;;;;;23.80;34.38;100937.10;213254;1276;141121;-65
2022/09/05 12:23:16;;;;;;;2.00;0.80;;;;;;;23.74;34.50;100932.17;213590;1275;140948;-65
2022/09/05 12:29:10;;;;;;;0.60;0.60;;;;;;;23.71;34.44;100924.80;215813;1276;140975;-65
2022/09/05 12:35:02;;;;;;;0.50;0.30;;;;;;;23.77;34.65;100921.95;215548;1276;140915;-63
2022/09/05 12:41:04;;;;;;;0.70;0.70;;;;;;;23.80;34.41;100914.67;213687;1274;139683;-65
2022/09/05 12:46:45;;;;;;;1.10;1.00;;;;;;;23.81;34.22;100917.20;214802;1275;140181;-66
2022/09/05 12:52:45;;;;;;;0.60;0.60;;;;;;;23.78;34.28;100910.48;213160;1276;140451;-65
2022/09/05 12:58:21;;;;;;;3.00;0.60;;;;;;;23.61;34.09;100905.51;214398;1274;140461;-65
2022/09/05 13:04:20;;;;;;;0.70;0.70;;;;;;;23.54;33.61;100901.92;214432;1277;140914;-65
2022/09/05 13:09:55;;;;;;;0.40;0.30;;;;;;;23.35;33.50;100898.25;213555;1277;142016;-66
2022/09/05 13:15:43;;;;;;;0.50;0.40;;;;;;;23.23;33.57;100901.30;213892;1275;143166;-66
2022/09/05 13:21:21;;;;;;;3.30;0.60;;;;;;;23.22;33.58;100906.30;213302;1274;140967;-66
2022/09/05 13:26:54;;;;;;;0.70;0.50;;;;;;;23.10;33.63;100903.73;213458;1274;140705;-64
2022/09/05 13:32:23;;;;;;;0.80;0.80;;;;;;;22.97;33.46;100900.10;213093;1274;141238;-65
2022/09/05 13:38:13;;;;;;;2.00;0.80;;;;;;;22.98;33.52;100892.86;214008;1274;140196;-65
2022/09/05 13:43:58;;;;;;;0.30;0.30;;;;;;;22.95;33.48;100888.98;214436;1275;140703;-65
2022/09/05 13:49:52;;;;;;;0.60;0.60;;;;;;;22.89;33.34;100890.38;213443;1276;140783;-66
2022/09/05 13:55:22;;;;;;;1.20;0.90;;;;;;;22.92;33.55;100885.17;214447;1274;139979;-66
2022/09/05 14:01:08;;;;;;;1.60;0.50;;;;;;;22.84;33.54;100881.08;214106;1274;139985;-66
2022/09/05 14:06:33;;;;;;;1.00;0.80;;;;;;;22.84;34.02;100881.13;213230;1276;139147;-66
2022/09/05 14:12:16;;;;;;;0.90;0.50;;;;;;;22.77;34.08;100879.00;214634;1275;141457;-66
2022/09/05 14:18:14;;;;;;;4.20;0.40;;;;;;;22.69;34.07;100877.10;215654;1274;140408;-66
2022/09/05 14:23:52;;;;;;;0.50;0.50;;;;;;;22.60;34.05;100872.59;214260;1274;141076;-65
2022/09/05 14:29:34;;;;;;;1.30;0.80;;;;;;;22.54;34.13;100871.03;216125;1274;139780;-66
2022/09/05 14:34:55;;;;;;;0.60;0.50;;;;;;;22.57;34.12;100868.83;216042;1274;140607;-66
2022/09/05 14:40:38;;;;;;;4.50;0.60;;;;;;;22.52;33.80;100859.29;215087;1274;139593;-66
2022/09/05 14:46:20;;;;;;;1.50;0.90;;;;;;;22.33;34.21;100858.83;214096;1274;140697;-66
2022/09/05 14:51:29;;;;;;;0.60;0.60;;;;;;;22.23;34.31;100849.58;214805;1274;140214;-66
2022/09/05 14:56:46;;;;;;;9.00;1.70;;;;;;;22.04;34.62;100846.79;215283;1274;139687;-66
2022/09/05 15:02:11;;;;;;;2.10;0.60;;;;;;;21.98;34.79;100848.95;214122;1274;139367;-65
2022/09/05 15:07:47;;;;;;;1.90;1.70;;;;;;;21.87;34.90;100845.43;215032;1274;140439;-65
2022/09/05 15:13:18;;;;;;;1.20;0.60;;;;;;;21.80;35.01;100844.02;213474;1276;140465;-65
2022/09/05 15:18:38;;;;;;;2.40;1.00;;;;;;;21.72;35.03;100836.09;213557;1274;139043;-66
2022/09/05 15:23:57;;;;;;;3.30;0.80;;;;;;;21.68;35.19;100834.55;213679;1274;141159;-66
2022/09/05 15:29:11;;;;;;;4.30;0.70;;;;;;;21.64;35.47;100826.93;214434;1276;140282;-68
2022/09/05 15:34:25;;;;;;;3.20;1.60;;;;;;;21.56;35.36;100823.45;213519;1276;139646;-65
2022/09/05 15:39:31;;;;;;;5.30;1.50;;;;;;;21.40;35.57;100819.21;213700;1274;140622;-65
2022/09/05 15:44:37;;;;;;;0.50;0.50;;;;;;;21.32;35.74;100825.65;214861;1275;140198;-65
2022/09/05 15:50:11;;;;;;;0.50;0.40;;;;;;;21.19;35.81;100816.91;214719;1275;139430;-65
2022/09/05 15:55:26;;;;;;;0.30;0.30;;;;;;;21.03;35.70;100819.41;214883;1275;139734;-65
2022/09/05 16:00:40;;;;;;;1.20;0.70;;;;;;;20.89;35.90;100818.55;215945;1274;140561;-65
2022/09/05 16:06:02;;;;;;;3.00;0.50;;;;;;;20.70;35.87;100821.86;215671;1276;139745;-66
2022/09/05 16:11:31;;;;;;;1.60;0.70;;;;;;;20.48;36.12;100814.77;216006;1276;140508;-67
2022/09/05 16:17:01;;;;;;;0.50;0.50;;;;;;;20.32;36.41;100814.33;215934;1275;140283;-67
2022/09/05 16:22:37;;;;;;;2.20;0.60;;;;;;;20.19;36.92;100810.93;215313;1274;139896;-67
2022/09/05 16:28:04;;;;;;;0.80;0.50;;;;;;;20.02;37.43;100807.47;215575;1276;141532;-68
2022/09/05 16:33:20;;;;;;;4.70;1.00;;;;;;;19.82;38.00;100805.25;214389;1276;139578;-69
2022/09/05 16:38:45;;;;;;;0.60;0.60;;;;;;;19.56;38.67;100800.58;215607;1274;140092;-67
2022/09/05 16:43:58;;;;;;;1.10;0.70;;;;;;;19.26;39.56;100800.86;214730;1274;141071;-66
2022/09/05 16:49:24;;;;;;;1.20;0.70;;;;;;;18.97;40.85;100800.38;215286;1276;140758;-66
2022/09/05 16:54:47;;;;;;;1.60;0.90;;;;;;;18.63;41.65;100802.27;215192;1276;139911;-66
2022/09/05 16:59:51;;;;;;;4.10;1.00;;;;;;;18.34;42.27;100796.35;215407;1274;141019;-66
2022/09/05 17:05:10;;;;;;;4.00;0.90;;;;;;;18.08;42.78;100793.67;215378;1275;139756;-65
2022/09/05 17:10:19;;;;;;;6.50;1.10;;;;;;;17.81;43.57;100797.23;214044;1274;139988;-66
2022/09/05 17:15:38;;;;;;;8.70;0.80;;;;;;;17.55;44.33;100797.63;213862;1274;140418;-67
2022/09/05 17:20:58;;;;;;;0.80;0.70;;;;;;;17.27;44.63;100794.47;213611;1273;207603;-65
2022/09/05 17:26:05;;;;;;;10.70;1.50;;;;;;;17.00;45.25;100798.75;214505;1273;140676;-66
2022/09/05 17:31:35;;;;;;;6.30;1.50;;;;;;;16.70;45.84;100802.20;215034;1274;141456;-67
2022/09/05 17:37:34;;;;;;;3.30;0.90;;;;;;;16.40;46.46;100806.74;213946;1274;140883;-66
2022/09/05 17:43:01;;;;;;;1.20;0.90;;;;;;;16.10;47.05;100812.52;213542;1274;141316;-65
2022/09/05 17:48:05;;;;;;;3.00;1.10;;;;;;;15.81;47.50;100818.56;213839;1273;142556;-67
2022/09/05 17:53:12;;;;;;;7.80;1.70;;;;;;;15.54;48.09;100823.95;213530;1274;142109;-66
2022/09/05 17:58:32;;;;;;;4.70;2.30;;;;;;;15.28;48.94;100832.98;215361;1273;139575;-66
2022/09/05 18:03:54;;;;;;;5.20;2.50;;;;;;;15.01;49.90;100830.55;213826;1274;139545;-66
2022/09/05 18:09:55;;;;;;;3.40;2.30;;;;;;;14.75;50.59;100828.64;215143;1274;140662;-67
2022/09/05 18:15:26;;;;;;;4.50;2.10;;;;;;;14.44;51.29;100825.06;214618;1273;139418;-66
2022/09/05 18:20:40;;;;;;;0.90;0.90;;;;;;;14.18;52.01;100830.00;216382;1273;140855;-66
2022/09/05 18:26:18;;;;;;;3.40;1.20;;;;;;;13.82;52.64;100825.09;215970;1274;139624;-66
2022/09/05 18:31:38;;;;;;;15.70;1.90;;;;;;;13.63;53.31;100827.84;216325;1274;140208;-66
2022/09/05 18:36:46;;;;;;;3.80;1.30;;;;;;;13.48;53.88;100833.69;215360;1274;140049;-66
2022/09/05 18:42:21;;;;;;;8.50;1.50;;;;;;;13.33;54.44;100830.88;215940;1273;140573;-65
2022/09/05 18:47:55;;;;;;;3.80;1.20;;;;;;;13.07;54.83;100833.86;214973;1274;139928;-65
2022/09/05 18:53:06;;;;;;;4.90;1.40;;;;;;;12.68;55.22;100837.58;215320;1272;139748;-65
2022/09/05 18:58:25;;;;;;;1.50;1.20;;;;;;;12.45;56.20;100839.66;214657;1273;140176;-66
2022/09/05 19:03:32;;;;;;;5.10;1.90;;;;;;;12.25;56.19;100835.27;215631;1274;161381;-66
2022/09/05 19:08:45;;;;;;;5.40;1.30;;;;;;;12.02;56.78;100833.36;214280;1273;139819;-65
2022/09/05 19:13:57;;;;;;;3.60;1.40;;;;;;;11.72;57.69;100833.79;214447;1274;139341;-66
2022/09/05 19:19:25;;;;;;;2.70;1.60;;;;;;;11.55;58.10;100833.24;213520;1274;139839;-66
2022/09/05 19:24:35;;;;;;;4.20;1.80;;;;;;;11.49;58.91;100833.23;214057;1274;141848;-67
2022/09/05 19:29:50;;;;;;;7.80;2.30;;;;;;;11.44;59.16;100829.60;212969;1273;1595481;-66
2022/09/05 19:35:21;;;;;;;3.40;1.80;;;;;;;11.32;59.40;100824.31;214059;1274;142736;-66
2022/09/05 19:40:45;;;;;;;6.90;2.60;;;;;;;11.18;59.57;100830.59;214012;1274;140857;-66
2022/09/05 19:46:14;;;;;;;4.40;2.00;;;;;;;10.99;60.00;100831.69;214505;1273;142220;-65
2022/09/05 19:51:40;;;;;;;3.80;1.50;;;;;;;10.70;60.51;100823.85;214117;1274;140708;-65
2022/09/05 19:56:45;;;;;;;7.30;2.80;;;;;;;10.56;61.15;100819.21;214937;1274;140684;-65
2022/09/05 20:01:51;;;;;;;3.60;2.60;;;;;;;10.54;61.42;100816.34;215462;1274;141775;-65
2022/09/05 20:06:55;;;;;;;8.60;4.50;;;;;;;10.38;61.36;100813.83;214528;1274;141100;-65
2022/09/05 20:11:59;;;;;;;11.10;4.80;;;;;;;10.26;61.95;100815.22;214166;1272;141530;-65
2022/09/05 20:17:33;;;;;;;11.00;5.00;;;;;;;10.31;62.58;100812.70;215596;1274;141885;-68
2022/09/05 20:22:42;;;;;;;8.10;4.30;;;;;;;10.31;62.61;100814.16;214477;1274;141489;-66
2022/09/05 20:27:52;;;;;;;8.10;5.20;;;;;;;10.16;62.73;100810.69;216136;1273;140997;-68
2022/09/05 20:33:01;;;;;;;14.40;7.70;;;;;;;10.03;62.84;100802.82;215298;1274;140639;-65
2022/09/05 20:38:35;;;;;;;8.60;6.20;;;;;;;9.89;63.35;100805.28;214494;1274;140992;-64
2022/09/05 20:44:16;;;;;;;14.50;7.20;;;;;;;9.81;63.58;100799.58;213949;1274;140383;-65
2022/09/05 20:49:32;;;;;;;8.90;5.40;;;;;;;9.71;63.79;100799.73;214105;1273;141297;-66
2022/09/05 20:54:59;;;;;;;9.40;4.70;;;;;;;9.64;64.04;100796.89;214641;1273;140941;-65
2022/09/05 21:00:23;;;;;;;10.80;6.20;;;;;;;9.61;64.41;100803.85;215424;1273;140629;-65
2022/09/05 21:05:33;;;;;;;12.30;5.10;;;;;;;9.57;64.35;100800.56;214575;1273;140693;-66
2022/09/05 21:10:55;;;;;;;10.90;5.50;;;;;;;9.52;64.36;100798.35;214534;1272;230806;-66
2022/09/05 21:15:59;;;;;;;9.00;3.90;;;;;;;9.38;64.54;100801.73;214556;1274;140109;-66
2022/09/05 21:21:05;;;;;;;8.50;4.80;;;;;;;9.22;64.92;100800.34;214206;1274;139386;-66
2022/09/05 21:26:29;;;;;;;6.30;4.80;;;;;;;9.20;65.52;100799.39;214411;1273;139161;-66
2022/09/05 21:31:41;;;;;;;11.70;5.20;;;;;;;9.24;66.01;100796.23;213661;1272;139209;-64
2022/09/05 21:36:46;;;;;;;5.50;3.90;;;;;;;9.34;66.16;100791.11;214135;1274;140281;-65
2022/09/05 21:42:01;;;;;;;7.70;4.30;;;;;;;9.44;66.18;100789.14;214663;1274;141380;-65
2022/09/05 21:47:25;;;;;;;9.80;5.00;;;;;;;9.54;66.04;100797.94;213671;1274;139847;-65
2022/09/05 21:52:51;;;;;;;9.30;4.90;;;;;;;9.59;66.25;100794.23;214871;1273;139121;-66
2022/09/05 21:58:14;;;;;;;9.00;3.90;;;;;;;9.56;66.27;100791.02;214984;1272;139399;-63
2022/09/05 22:03:38;;;;;;;12.80;4.80;;;;;;;9.50;66.00;100789.90;214991;1274;140497;-65
2022/09/05 22:08:41;;;;;;;12.00;5.80;;;;;;;9.43;66.26;100790.89;215560;1274;140248;-66
2022/09/05 22:14:05;;;;;;;5.90;4.00;;;;;;;9.43;66.34;100792.98;213176;1273;140059;-65
2022/09/05 22:19:10;;;;;;;6.60;3.70;;;;;;;9.43;66.67;100791.59;216155;1273;140220;-66
2022/09/05 22:24:13;;;;;;;7.20;3.00;;;;;;;9.45;66.74;100788.97;215931;1274;140290;-66
2022/09/05 22:29:17;;;;;;;4.90;4.30;;;;;;;9.53;66.65;100782.90;215409;1273;140584;-66
2022/09/05 22:34:21;;;;;;;6.70;3.90;;;;;;;9.61;66.71;100781.54;214605;1272;139766;-65
2022/09/05 22:39:25;;;;;;;7.40;3.90;;;;;;;9.67;66.65;100783.67;214850;1274;140051;-66
2022/09/05 22:44:40;;;;;;;5.30;3.00;;;;;;;9.67;66.61;100787.65;214664;1274;139225;-65
2022/09/05 22:49:44;;;;;;;5.00;3.40;;;;;;;9.66;66.46;100784.25;214792;1274;139899;-64
2022/09/05 22:54:47;;;;;;;9.50;3.20;;;;;;;9.67;66.63;100779.86;214439;1274;140230;-66
2022/09/05 22:59:51;;;;;;;9.20;3.10;;;;;;;9.68;66.61;100777.05;213958;1274;140939;-65
2022/09/05 23:04:55;;;;;;;5.40;2.10;;;;;;;9.67;66.48;100777.54;213634;1274;209510;-65
2022/09/05 23:09:59;;;;;;;7.80;3.30;;;;;;;9.65;66.80;100772.98;214000;1274;140400;-65
2022/09/05 23:15:03;;;;;;;2.50;2.20;;;;;;;9.61;66.78;100770.48;214676;1274;140897;-66
2022/09/05 23:20:09;;;;;;;2.40;2.20;;;;;;;9.55;66.72;100761.24;213536;1274;139804;-66
2022/09/05 23:25:13;;;;;;;3.70;2.80;;;;;;;9.50;67.17;100757.59;214036;1274;140293;-65
2022/09/05 23:30:18;;;;;;;11.00;3.00;;;;;;;9.48;67.03;100753.63;213957;1274;140728;-65
2022/09/05 23:35:21;;;;;;;3.90;2.20;;;;;;;9.45;66.93;100757.44;214965;1274;140772;-65
2022/09/05 23:40:25;;;;;;;8.10;3.50;;;;;;;9.37;67.10;100763.65;213703;1273;140958;-65
2022/09/05 23:45:30;;;;;;;4.40;2.70;;;;;;;9.28;66.93;100761.41;214615;1272;140086;-66
2022/09/05 23:50:33;;;;;;;6.00;2.90;;;;;;;9.20;67.20;100764.41;213741;1274;140583;-64
2022/09/05 23:55:36;;;;;;;4.30;2.50;;;;;;;9.11;67.17;100763.09;214633;1273;140618;-64
